createdAt,value
2018-06-11T00:00:15.112Z,8.63
2018-06-11T00:02:43.871Z,9.10
2018-06-11T00:05:12.548Z,8.83
2018-06-11T00:07:41.217Z,10.47
2018-06-11T00:10:09.958Z,9.63
2018-06-11T00:12:38.715Z,10.67
2018-06-11T00:15:07.483Z,9.70
2018-06-11T00:17:36.167Z,10.70
2018-06-11T00:20:06.907Z,9.70
2018-06-11T00:22:35.553Z,9.60
2018-06-11T00:25:04.260Z,9.93
2018-06-11T00:27:33.025Z,9.60
2018-06-11T00:30:01.723Z,11.20
2018-06-11T00:32:30.465Z,10.13
2018-06-11T00:34:59.239Z,10.10
2018-06-11T00:37:27.940Z,10.33
2018-06-11T00:39:56.682Z,10.73
2018-06-11T00:42:25.585Z,10.27
2018-06-11T00:44:54.296Z,10.50
2018-06-11T00:47:23.204Z,11.30
2018-06-11T00:49:51.915Z,10.80
2018-06-11T00:52:20.645Z,11.40
2018-06-11T00:54:49.378Z,10.73
2018-06-11T00:57:18.118Z,9.97
2018-06-11T00:59:46.803Z,11.17
2018-06-11T01:02:15.498Z,10.90
2018-06-11T01:04:44.219Z,11.40
2018-06-11T01:07:12.979Z,10.20
2018-06-11T01:09:41.725Z,10.90
2018-06-11T01:12:10.507Z,10.30
2018-06-11T01:14:39.230Z,10.53
2018-06-11T01:17:07.950Z,10.67
2018-06-11T01:19:36.678Z,10.70
2018-06-11T01:22:05.399Z,10.07
2018-06-11T01:24:34.111Z,10.97
2018-06-11T01:27:02.847Z,11.60
2018-06-11T01:29:31.539Z,12.63
2018-06-11T01:32:00.276Z,13.40
2018-06-11T01:34:29.089Z,12.03
2018-06-11T01:36:57.799Z,13.00
2018-06-11T01:39:26.541Z,12.33
2018-06-11T01:41:55.295Z,12.73
2018-06-11T01:44:27.461Z,12.80
2018-06-11T01:46:56.143Z,11.90
2018-06-11T01:49:24.869Z,12.20
2018-06-11T01:51:53.603Z,12.57
2018-06-11T01:54:21.934Z,13.77
2018-06-11T01:56:50.678Z,12.50
2018-06-11T01:59:19.435Z,12.90
2018-06-11T02:01:48.146Z,12.90
2018-06-11T02:04:17.855Z,12.10
2018-06-11T02:06:46.587Z,11.23
2018-06-11T02:09:15.303Z,12.17
2018-06-11T02:11:44.062Z,12.80
2018-06-11T02:14:12.771Z,12.47
2018-06-11T02:16:41.442Z,12.13
2018-06-11T02:19:10.145Z,12.63
2018-06-11T02:21:38.847Z,12.20
2018-06-11T02:24:07.522Z,12.53
2018-06-11T02:26:36.175Z,12.50
2018-06-11T02:29:04.888Z,12.10
2018-06-11T02:31:33.590Z,12.97
2018-06-11T02:34:02.642Z,11.77
2018-06-11T02:36:31.351Z,13.00
2018-06-11T02:39:00.114Z,12.60
2018-06-11T02:41:28.818Z,12.83
2018-06-11T02:43:57.523Z,12.87
2018-06-11T02:46:26.207Z,13.90
2018-06-11T02:48:54.890Z,13.50
2018-06-11T02:51:23.651Z,12.80
2018-06-11T02:53:52.325Z,12.30
2018-06-11T02:56:21.031Z,13.67
2018-06-11T02:58:49.763Z,12.43
2018-06-11T03:01:18.485Z,13.00
2018-06-11T03:03:47.176Z,13.93
2018-06-11T03:06:15.894Z,14.73
2018-06-11T03:08:44.630Z,13.77
2018-06-11T03:11:13.335Z,13.80
2018-06-11T03:13:42.070Z,14.23
2018-06-11T03:16:10.744Z,13.20
2018-06-11T03:18:43.209Z,14.07
2018-06-11T03:21:12.481Z,13.87
2018-06-11T03:23:41.274Z,14.17
2018-06-11T03:26:09.930Z,14.20
2018-06-11T03:28:39.033Z,13.80
2018-06-11T03:31:07.756Z,14.13
2018-06-11T03:33:36.472Z,14.70
2018-06-11T03:36:05.179Z,15.17
2018-06-11T03:38:33.866Z,14.90
2018-06-11T03:41:02.572Z,14.87
2018-06-11T03:43:31.367Z,16.03
2018-06-11T03:46:00.395Z,15.17
2018-06-11T03:48:29.135Z,16.90
2018-06-11T03:50:57.843Z,16.83
2018-06-11T03:53:26.551Z,15.60
2018-06-11T03:55:55.303Z,15.87
2018-06-11T03:58:24.027Z,16.50
2018-06-11T04:00:52.789Z,14.70
2018-06-11T04:03:21.514Z,15.90
2018-06-11T04:05:50.263Z,15.70
2018-06-11T04:08:18.959Z,16.53
2018-06-11T04:10:47.791Z,18.50
2018-06-11T04:13:16.478Z,17.00
2018-06-11T04:15:45.215Z,16.40
2018-06-11T04:18:13.917Z,17.00
2018-06-11T04:20:42.664Z,17.30
2018-06-11T04:23:11.390Z,18.10
2018-06-11T04:25:40.166Z,18.07
2018-06-11T04:28:08.840Z,16.87
2018-06-11T04:30:37.572Z,18.83
2018-06-11T04:33:06.380Z,19.00
2018-06-11T04:35:35.061Z,18.50
2018-06-11T04:38:03.729Z,18.37
2018-06-11T04:40:36.803Z,18.40
2018-06-11T04:43:05.558Z,18.50
2018-06-11T04:45:34.229Z,18.00
2018-06-11T04:48:02.971Z,18.57
2018-06-11T04:50:31.780Z,18.27
2018-06-11T04:53:00.841Z,17.57
2018-06-11T04:55:29.588Z,18.80
2018-06-11T04:57:58.310Z,16.70
2018-06-11T05:00:27.002Z,17.73
2018-06-11T05:02:55.721Z,19.10
2018-06-11T05:05:24.414Z,19.20
2018-06-11T05:07:53.114Z,17.93
2018-06-11T05:10:21.851Z,18.90
2018-06-11T05:12:50.594Z,18.17
2018-06-11T05:15:19.294Z,18.60
2018-06-11T05:17:48.002Z,18.73
2018-06-11T05:20:16.707Z,18.10
2018-06-11T05:22:45.440Z,17.60
2018-06-11T05:25:14.158Z,16.27
2018-06-11T05:27:42.847Z,16.50
2018-06-11T05:30:11.603Z,17.53
2018-06-11T05:32:40.426Z,17.73
2018-06-11T05:35:09.126Z,15.37
2018-06-11T05:37:38.841Z,15.43
2018-06-11T05:40:07.617Z,13.60
2018-06-11T05:42:36.326Z,15.43
2018-06-11T05:45:04.727Z,14.07
2018-06-11T05:47:33.491Z,14.30
2018-06-11T05:50:01.826Z,12.83
2018-06-11T05:52:30.558Z,13.10
2018-06-11T05:54:59.336Z,12.37
2018-06-11T05:57:28.023Z,12.53
2018-06-11T05:59:56.739Z,12.40
2018-06-11T06:02:27.611Z,12.83
2018-06-11T06:04:56.312Z,11.50
2018-06-11T06:07:25.014Z,11.90
2018-06-11T06:09:53.758Z,13.53
2018-06-11T06:12:22.479Z,12.17
2018-06-11T06:14:51.198Z,12.27
2018-06-11T06:17:19.976Z,12.30
2018-06-11T06:19:48.726Z,11.17
2018-06-11T06:22:17.550Z,10.90
2018-06-11T06:24:46.295Z,11.00
2018-06-11T06:27:15.176Z,10.80
2018-06-11T06:29:43.866Z,11.67
2018-06-11T06:32:12.618Z,12.03
2018-06-11T06:34:41.351Z,10.73
2018-06-11T06:37:10.071Z,11.20
2018-06-11T06:39:38.909Z,10.97
2018-06-11T06:42:07.602Z,10.10
2018-06-11T06:44:36.275Z,9.67
2018-06-11T06:47:05.016Z,8.40
2018-06-11T06:49:33.777Z,8.50
2018-06-11T06:52:02.501Z,8.93
2018-06-11T06:54:31.248Z,9.57
2018-06-11T06:56:59.938Z,10.50
2018-06-11T06:59:28.644Z,10.20
2018-06-11T07:01:57.369Z,9.53
2018-06-11T07:04:26.094Z,11.30
2018-06-11T07:06:54.813Z,10.00
2018-06-11T07:09:23.535Z,9.37
2018-06-11T07:11:52.224Z,9.93
2018-06-11T07:14:20.951Z,9.60
2018-06-11T07:16:49.752Z,10.23
2018-06-11T07:19:18.431Z,8.97
2018-06-11T07:21:47.136Z,9.90
2018-06-11T07:24:15.891Z,8.97
2018-06-11T07:26:44.599Z,10.30
2018-06-11T07:29:13.308Z,10.00
2018-06-11T07:31:42.069Z,10.20
2018-06-11T07:34:10.782Z,9.00
2018-06-11T07:36:39.480Z,9.97
2018-06-11T07:39:08.595Z,9.33
2018-06-11T07:41:37.310Z,9.80
2018-06-11T07:44:06.110Z,10.60
2018-06-11T07:46:34.874Z,9.40
2018-06-11T07:49:03.602Z,10.67
2018-06-11T07:51:32.319Z,9.70
2018-06-11T07:54:01.059Z,10.20
2018-06-11T07:56:29.786Z,9.90
2018-06-11T07:58:58.492Z,9.53
2018-06-11T08:01:27.298Z,11.00
2018-06-11T08:03:56.019Z,10.57
2018-06-11T08:06:24.380Z,9.90
2018-06-11T08:08:53.135Z,10.47
2018-06-11T08:11:21.869Z,9.93
2018-06-11T08:13:50.548Z,9.97
2018-06-11T08:16:21.208Z,9.97
2018-06-11T08:18:49.899Z,9.87
2018-06-11T08:21:27.991Z,10.17
2018-06-11T08:23:56.325Z,10.07
2018-06-11T08:26:25.046Z,10.70
2018-06-11T08:28:53.834Z,9.60
2018-06-11T08:31:22.177Z,10.50
2018-06-11T08:33:50.945Z,11.40
2018-06-11T08:36:19.274Z,10.23
2018-06-11T08:38:47.952Z,10.80
2018-06-11T08:41:16.670Z,10.17
2018-06-11T08:43:45.474Z,10.20
2018-06-11T08:46:14.209Z,10.70
2018-06-11T08:48:42.882Z,10.87
2018-06-11T08:51:11.630Z,10.17
2018-06-11T08:53:40.365Z,10.50
2018-06-11T08:56:09.038Z,10.00
2018-06-11T08:58:37.784Z,10.00
2018-06-11T09:01:06.536Z,11.10
2018-06-11T09:03:35.236Z,10.10
2018-06-11T09:06:03.875Z,10.03
2018-06-11T09:08:32.598Z,10.47
2018-06-11T09:11:01.305Z,10.83
2018-06-11T09:13:30.918Z,10.37
2018-06-11T09:15:59.688Z,10.43
2018-06-11T09:18:28.574Z,10.53
2018-06-11T09:20:57.261Z,10.43
2018-06-11T09:23:25.608Z,11.13
2018-06-11T09:25:54.329Z,9.80
2018-06-11T09:28:25.952Z,10.70
2018-06-11T09:30:54.656Z,10.20
2018-06-11T09:33:23.400Z,9.40
2018-06-11T09:35:52.149Z,10.47
2018-06-11T09:38:20.457Z,10.40
2018-06-11T09:40:49.179Z,11.20
2018-06-11T09:43:17.947Z,9.90
2018-06-11T09:45:46.650Z,10.03
2018-06-11T09:48:15.423Z,10.63
2018-06-11T09:50:44.169Z,10.87
2018-06-11T09:53:12.918Z,10.87
2018-06-11T09:55:41.662Z,10.50
2018-06-11T09:58:10.374Z,10.20
2018-06-11T10:00:39.091Z,10.17
2018-06-11T10:03:25.968Z,10.50
2018-06-11T10:05:54.693Z,10.60
2018-06-11T10:08:23.403Z,10.63
2018-06-11T10:10:55.778Z,11.30
2018-06-11T10:13:24.517Z,10.63
2018-06-11T10:15:53.272Z,10.63
2018-06-11T10:18:22.017Z,9.40
2018-06-11T10:20:50.728Z,9.50
2018-06-11T10:23:19.484Z,10.07
2018-06-11T10:25:48.399Z,9.93
2018-06-11T10:28:17.126Z,9.60
2018-06-11T10:30:45.904Z,9.70
2018-06-11T10:33:14.619Z,9.40
2018-06-11T10:35:43.354Z,8.70
2018-06-11T10:38:12.049Z,9.23
2018-06-11T10:40:40.757Z,8.43
2018-06-11T10:43:13.946Z,8.87
2018-06-11T10:45:42.713Z,9.63
2018-06-11T10:48:11.422Z,9.77
2018-06-11T10:50:40.291Z,10.10
2018-06-11T10:53:08.999Z,8.83
2018-06-11T10:55:37.698Z,8.90
2018-06-11T10:58:06.448Z,9.30
2018-06-11T11:00:34.770Z,8.90
2018-06-11T11:03:04.211Z,9.07
2018-06-11T11:05:32.925Z,8.90
2018-06-11T11:08:01.651Z,9.57
2018-06-11T11:10:30.328Z,9.40
2018-06-11T11:12:59.050Z,10.23
2018-06-11T11:15:27.421Z,10.20
2018-06-11T11:17:56.158Z,10.87
2018-06-11T11:20:24.850Z,10.90
2018-06-11T11:22:53.577Z,11.43
2018-06-11T11:25:22.290Z,11.60
2018-06-11T11:27:50.978Z,10.73
2018-06-11T11:30:19.762Z,11.10
2018-06-11T11:32:48.552Z,11.20
2018-06-11T11:35:17.283Z,11.40
2018-06-11T11:37:46.011Z,11.60
2018-06-11T11:40:18.759Z,11.27
2018-06-11T11:45:46.985Z,10.60
2018-06-11T11:51:08.656Z,10.90
2018-06-11T11:53:38.437Z,10.67
2018-06-11T11:56:07.202Z,9.87
2018-06-11T11:58:48.112Z,10.60
2018-06-11T12:01:16.877Z,10.40
2018-06-11T12:03:47.666Z,10.50
2018-06-11T12:06:16.474Z,10.27
2018-06-11T12:11:40.594Z,11.23
2018-06-11T12:14:09.471Z,9.80
2018-06-11T12:16:38.189Z,11.33
2018-06-11T12:19:06.586Z,11.17
2018-06-11T12:21:35.383Z,11.40
2018-06-11T12:24:04.078Z,11.70
2018-06-11T12:26:33.924Z,11.73
2018-06-11T12:29:02.679Z,11.80
2018-06-11T12:31:31.412Z,10.47
2018-06-11T12:34:18.091Z,10.70
2018-06-11T12:36:46.875Z,11.53
2018-06-11T12:39:15.574Z,10.73
2018-06-11T12:41:58.055Z,10.33
2018-06-11T12:44:26.745Z,10.40
2018-06-11T12:46:55.428Z,8.60
2018-06-11T12:49:24.172Z,7.67
2018-06-11T12:51:58.535Z,6.37
2018-06-11T12:54:27.270Z,7.20
2018-06-11T13:00:00.369Z,8.97
2018-06-11T13:02:29.067Z,9.40
2018-06-11T13:04:57.779Z,9.30
2018-06-11T13:07:26.486Z,9.13
2018-06-11T13:09:55.194Z,10.53
2018-06-11T13:12:23.913Z,10.63
2018-06-11T13:14:52.637Z,11.47
2018-06-11T13:17:21.416Z,34.50
2018-06-11T13:19:50.286Z,14.00
2018-06-11T13:22:18.651Z,9.97
2018-06-11T13:24:47.392Z,9.90
2018-06-11T13:27:16.103Z,10.10
2018-06-11T13:29:51.656Z,10.43
2018-06-11T13:32:21.201Z,9.07
2018-06-11T13:34:49.921Z,8.47
2018-06-11T13:37:18.715Z,8.77
2018-06-11T13:39:47.403Z,7.50
2018-06-11T13:42:16.087Z,9.37
2018-06-11T13:44:44.871Z,9.07
2018-06-11T13:47:13.517Z,8.87
2018-06-11T13:49:41.844Z,7.93
2018-06-11T13:52:10.563Z,8.67
2018-06-11T13:54:39.276Z,8.20
2018-06-11T13:57:07.958Z,24.80
2018-06-11T13:59:36.730Z,29.20
2018-06-11T14:02:05.089Z,7.67
2018-06-11T14:04:33.812Z,7.53
2018-06-11T14:07:02.556Z,7.20
2018-06-11T14:09:31.299Z,6.97
2018-06-11T14:12:04.344Z,7.37
2018-06-11T14:14:33.031Z,7.13
2018-06-11T14:17:01.360Z,7.77
2018-06-11T14:19:30.067Z,7.03
2018-06-11T14:22:00.895Z,6.83
2018-06-11T14:24:29.666Z,7.17
2018-06-11T14:26:59.411Z,6.63
2018-06-11T14:29:28.230Z,6.87
2018-06-11T14:31:56.971Z,6.50
2018-06-11T14:34:25.793Z,6.90
2018-06-11T14:36:54.475Z,8.17
2018-06-11T14:39:23.192Z,8.80
2018-06-11T14:41:52.017Z,9.33
2018-06-11T14:44:21.083Z,8.20
2018-06-11T14:46:49.834Z,8.17
2018-06-11T14:49:18.678Z,9.20
2018-06-11T14:51:47.640Z,11.10
2018-06-11T14:54:16.383Z,14.77
2018-06-11T14:56:49.643Z,10.60
2018-06-11T14:59:18.377Z,9.47
2018-06-11T15:01:47.091Z,10.93
2018-06-11T15:04:15.837Z,10.87
2018-06-11T15:06:44.567Z,10.53
2018-06-11T15:09:13.297Z,11.07
2018-06-11T15:11:45.991Z,9.50
2018-06-11T15:14:15.715Z,10.87
2018-06-11T15:16:45.229Z,11.40
2018-06-11T15:19:19.585Z,9.97
2018-06-11T15:21:48.339Z,9.17
2018-06-11T15:27:16.494Z,10.30
2018-06-11T15:29:45.175Z,9.47
2018-06-11T15:32:13.875Z,8.33
2018-06-11T15:34:42.586Z,6.43
2018-06-11T15:37:11.269Z,5.00
2018-06-11T15:39:39.620Z,4.77
2018-06-11T15:42:08.395Z,4.93
2018-06-11T15:44:37.082Z,4.70
2018-06-11T15:47:05.922Z,5.40
2018-06-11T15:49:34.655Z,4.90
2018-06-11T15:52:03.574Z,4.60
2018-06-11T15:54:32.239Z,4.80
2018-06-11T15:59:54.302Z,5.90
2018-06-11T16:02:23.046Z,6.13
2018-06-11T16:04:56.236Z,6.40
2018-06-11T16:07:24.982Z,6.87
2018-06-11T16:09:53.654Z,8.10
2018-06-11T16:12:35.911Z,6.83
2018-06-11T16:15:04.686Z,5.27
2018-06-11T16:17:33.382Z,5.93
2018-06-11T16:20:02.097Z,4.80
2018-06-11T16:22:30.786Z,6.20
2018-06-11T16:24:59.506Z,5.60
2018-06-11T16:27:29.386Z,5.70
2018-06-11T16:29:58.093Z,4.67
2018-06-11T16:32:26.781Z,5.60
2018-06-11T16:34:55.466Z,5.00
2018-06-11T16:37:24.196Z,4.23
2018-06-11T16:39:52.883Z,4.87
2018-06-11T16:42:21.580Z,5.27
2018-06-11T16:44:50.287Z,4.70
2018-06-11T16:47:18.964Z,5.50
2018-06-11T16:49:47.682Z,5.53
2018-06-11T16:52:16.370Z,5.67
2018-06-11T16:54:56.008Z,5.30
2018-06-11T16:57:24.678Z,5.20
2018-06-11T16:59:53.382Z,5.47
2018-06-11T17:02:22.138Z,4.93
2018-06-11T17:04:50.827Z,5.47
2018-06-11T17:07:19.498Z,5.30
2018-06-11T17:09:48.259Z,5.40
2018-06-11T17:12:17.120Z,5.03
2018-06-11T17:14:45.846Z,4.97
2018-06-11T17:17:14.661Z,4.27
2018-06-11T17:19:43.428Z,3.77
2018-06-11T17:22:12.148Z,4.60
2018-06-11T17:24:40.852Z,4.20
2018-06-11T17:27:09.542Z,4.50
2018-06-11T17:29:38.250Z,3.80
2018-06-11T17:32:06.962Z,4.20
2018-06-11T17:34:35.695Z,4.50
2018-06-11T17:37:04.359Z,4.30
2018-06-11T17:39:33.146Z,4.30
2018-06-11T17:42:01.893Z,5.20
2018-06-11T17:44:30.630Z,4.20
2018-06-11T17:46:59.316Z,4.40
2018-06-11T17:49:28.026Z,4.87
2018-06-11T17:51:56.822Z,4.60
2018-06-11T17:54:25.642Z,5.70
2018-06-11T17:56:54.402Z,5.67
2018-06-11T17:59:23.109Z,5.53
2018-06-11T18:01:51.832Z,6.30
2018-06-11T18:04:20.622Z,6.40
2018-06-11T18:06:49.377Z,7.07
2018-06-11T18:09:18.113Z,7.00
2018-06-11T18:11:46.850Z,6.70
2018-06-11T18:14:15.690Z,6.70
2018-06-11T18:16:44.395Z,6.30
2018-06-11T18:19:13.053Z,5.97
2018-06-11T18:21:43.389Z,6.47
2018-06-11T18:24:12.306Z,5.70
2018-06-11T18:26:40.989Z,5.20
2018-06-11T18:29:09.769Z,5.77
2018-06-11T18:31:42.359Z,6.10
2018-06-11T18:34:11.178Z,5.77
2018-06-11T18:36:39.895Z,4.47
2018-06-11T18:39:11.793Z,5.53
2018-06-11T18:41:40.509Z,5.13
2018-06-11T18:44:09.247Z,5.30
2018-06-11T18:46:38.106Z,3.93
2018-06-11T18:49:06.822Z,4.10
2018-06-11T18:51:35.539Z,3.90
2018-06-11T18:54:03.888Z,4.10
2018-06-11T18:56:32.622Z,4.50
2018-06-11T18:59:01.309Z,3.63
2018-06-11T19:01:30.399Z,3.70
2018-06-11T19:03:59.325Z,3.50
2018-06-11T19:06:33.459Z,3.40
2018-06-11T19:09:02.614Z,3.80
2018-06-11T19:14:26.457Z,2.90
2018-06-11T19:16:55.197Z,2.40
2018-06-11T19:19:23.925Z,3.23
2018-06-11T19:21:52.647Z,2.40
2018-06-11T19:24:21.456Z,2.73
2018-06-11T19:26:50.198Z,2.80
2018-06-11T19:29:18.973Z,2.20
2018-06-11T19:31:47.677Z,2.43
2018-06-11T19:34:16.402Z,2.73
2018-06-11T19:36:45.315Z,2.30
2018-06-11T19:39:17.800Z,3.07
2018-06-11T19:41:46.564Z,2.70
2018-06-11T19:44:21.504Z,3.00
2018-06-11T19:46:50.275Z,3.53
2018-06-11T19:49:18.996Z,3.50
2018-06-11T19:51:47.827Z,3.60
2018-06-11T19:54:16.622Z,3.67
2018-06-11T19:56:45.566Z,3.10
2018-06-11T19:59:14.420Z,3.13
2018-06-11T20:01:43.251Z,3.20
2018-06-11T20:04:11.989Z,3.40
2018-06-11T20:06:40.726Z,3.10
2018-06-11T20:09:09.545Z,2.60
2018-06-11T20:11:38.295Z,2.63
2018-06-11T20:14:07.042Z,2.90
2018-06-11T20:16:35.834Z,3.10
2018-06-11T20:19:04.652Z,4.20
2018-06-11T20:21:33.400Z,3.40
2018-06-11T20:24:02.181Z,2.90
2018-06-11T20:26:30.946Z,3.20
2018-06-11T20:29:00.364Z,3.70
2018-06-11T20:31:29.157Z,3.43
2018-06-11T20:33:59.523Z,3.80
2018-06-11T20:36:28.301Z,3.60
2018-06-11T20:38:57.036Z,3.60
2018-06-11T20:41:25.785Z,3.60
2018-06-11T20:43:54.523Z,4.13
2018-06-11T20:46:23.295Z,4.30
2018-06-11T20:48:52.049Z,4.47
2018-06-11T20:51:33.179Z,4.80
2018-06-11T20:54:01.894Z,4.93
2018-06-11T20:56:30.611Z,5.07
2018-06-11T20:58:59.354Z,4.83
2018-06-11T21:01:28.085Z,5.03
2018-06-11T21:03:56.790Z,5.43
2018-06-11T21:06:25.578Z,5.07
2018-06-11T21:08:54.297Z,5.27
2018-06-11T21:11:22.635Z,4.40
2018-06-11T21:13:51.370Z,4.20
2018-06-11T21:16:20.118Z,4.20
2018-06-11T21:18:49.232Z,4.17
2018-06-11T21:21:17.999Z,4.80
2018-06-11T21:23:46.714Z,4.90
2018-06-11T21:26:15.463Z,5.57
2018-06-11T21:28:48.490Z,5.10
2018-06-11T21:31:17.595Z,4.93
2018-06-11T21:33:46.363Z,5.50
2018-06-11T21:36:15.123Z,5.20
2018-06-11T21:38:43.855Z,4.90
2018-06-11T21:41:12.622Z,5.80
2018-06-11T21:43:40.987Z,5.60
2018-06-11T21:46:10.403Z,5.80
2018-06-11T21:48:39.111Z,5.77
2018-06-11T21:51:07.969Z,5.93
2018-06-11T21:53:36.694Z,6.20
2018-06-11T21:56:05.420Z,7.20
2018-06-11T21:58:34.196Z,6.97
2018-06-11T22:01:02.956Z,6.70
2018-06-11T22:03:31.730Z,6.60
2018-06-11T22:06:00.417Z,6.37
2018-06-11T22:08:29.123Z,6.40
2018-06-11T22:11:14.327Z,6.27
2018-06-11T22:13:46.316Z,6.20
2018-06-11T22:16:15.082Z,7.23
2018-06-11T22:18:43.807Z,7.33
2018-06-11T22:21:12.542Z,7.70
2018-06-11T22:23:41.352Z,8.43
2018-06-11T22:26:10.050Z,7.70
2018-06-11T22:28:38.776Z,8.80
2018-06-11T22:31:07.933Z,8.80
2018-06-11T22:33:36.603Z,8.50
2018-06-11T22:36:05.386Z,9.07
2018-06-11T22:38:34.114Z,9.20
2018-06-11T22:41:02.851Z,8.20
2018-06-11T22:43:31.546Z,9.27
2018-06-11T22:46:00.297Z,9.10
2018-06-11T22:48:29.005Z,8.43
2018-06-11T22:50:57.709Z,9.70
2018-06-11T22:53:26.437Z,9.23
2018-06-11T22:55:55.165Z,9.33
2018-06-11T22:58:23.864Z,9.43
2018-06-11T23:00:52.600Z,10.57
2018-06-11T23:03:21.291Z,10.50
2018-06-11T23:05:50.075Z,11.40
2018-06-11T23:08:19.224Z,10.97
2018-06-11T23:10:48.061Z,11.73
2018-06-11T23:13:16.802Z,11.90
2018-06-11T23:15:46.181Z,12.30
2018-06-11T23:18:14.912Z,12.50
2018-06-11T23:20:43.622Z,12.17
2018-06-11T23:23:12.394Z,12.80
2018-06-11T23:25:41.129Z,11.50
2018-06-11T23:28:09.842Z,11.53
2018-06-11T23:30:38.574Z,11.80
2018-06-11T23:33:07.335Z,11.00
2018-06-11T23:35:36.118Z,10.80
2018-06-11T23:38:04.929Z,11.00
2018-06-11T23:40:33.670Z,12.03
2018-06-11T23:49:01.098Z,12.60
2018-06-11T23:51:29.822Z,11.50
2018-06-11T23:53:58.587Z,11.70
2018-06-11T23:56:27.400Z,11.60
2018-06-11T23:58:56.131Z,11.87
